Peoria, IL (61603)

05:32 PM CST del 22 novembre 2014 (GMT -0600)
DracoPhyre PWS | Change Station
CLOSE
Current Station
Stazione meteo personale
Location: Peoria, IL
Altitudine: 640 ft
Stazioni meteo nelle vicinanze

Alt. 640 ft 40.72 °N, 89.59 °W | Updated 2 seconds ago

Coperto
Coperto
54.9 °F
Sembra 54.9 °F
N
2.2
Vento Variabile Vento da SO
Gusts 5.4 mph

Oggi
Massima -- | Minima -- °F
--% Possibilità di precip.
Ieri
Massima -- | Minima -- °F
Precip. -- in
6:53 AM 4:35 PM
Luna nuova, 0% visible
Pressione 29.89 in
Visibilità 10.0 miglia
Nuvole Nubi sparse 2200 ft
Coperto 2800 ft
Punto di rugiada 50 °F
Umidità 85%
Piovosità 0.00 in
Spessore del manto nevoso Non disponibile.
Raggi UV 0 fuori da 12
Polline .10 fuori da 12
Qualità dell'aria Non disponibile.
Flu Activity Non disponibile.
METAR KPIA 222254Z 19015KT 10SM SCT022 OVC028 14/08 A2988 RMK AO2 SLP121 T01390083

More Conditions Fewer Conditions

Pressione 29.89 in
Visibilità 10.0 miglia
Nuvole Nubi sparse 2200 ft
Coperto 2800 ft
Punto di rugiada 50 °F
Umidità 85%
Piovosità 0.00 in
Spessore del manto nevoso Non disponibile.
Raggi UV 0 fuori da 12
Polline .10 fuori da 12
Qualità dell'aria Non disponibile.
Flu Activity Non disponibile.
METAR KPIA 222254Z 19015KT 10SM SCT022 OVC028 14/08 A2988 RMK AO2 SLP121 T01390083

More Conditions Fewer Conditions

10-Day Weather Forecast

Almanac

Astronomia

Nov. 22, 2014 Alba Tramonto
Ora attuale
Crepuscolo civile
Crepuscolo nautico
Crepuscolo astronomico
Luna
Estensione della luce visibile
Lunghezza del giorno
Tomorrow will be .
, % of the Moon is Illuminated

Gli estremi di oggi

State Highs State Lows

Community

WunderPhotos

Upload Photos

1,772,919 foto caricate!

WunderBlogs® & News

Nearby

Qualità dell'aria

  Qualità dell'aria Indice AQ Inquinante
Not available.

Profondità neve

Stazione Profondità Altitudine

Attività sismica

Città  Distanza Mag. Data & Ora
Minimo Magnitudo Mostrato è 2.5.

Temperature delle acque costiere

Località Temperatura

Stazioni meteo nelle vicinanze